Airfield :
LOGIN :

Register | Disclaimer

   EN    FR    IT 

 










Legend :    VFR   Marginal VFR   IFR   Intensive IFR   Very Intensive IFR
Visi :
Ceiling :
>= 8 km
>= 3000ft
5 to 8 km
1000 to 3000 ft
1500m to 5 km
500 to 1000 ft
800 to 1500m
200 to 500 ft
< 800m
< 200 ft
Symbols :   Thunderstorms  Fog  Heavy snow  Heavy precipitations  Wind > 20 kt
SIGMETs :     Misc.  Thunderstorms  Icing  Turbulence  Mountain Waves  Volcanic Ashes






- Airport Elevation : 242 ft
- IATA code : DUB


EIDW - Dublin

CURRENT METAR :
  • 191700Z 23010KT 190V270 9999 FEW025 BKN040 19/10 Q1013 NOSIG

EXPIRED METARs :
  • 191630Z 23011KT 190V270 9999 FEW018 BKN040 19/11 Q1012 NOSIG
  • 191600Z 25014KT 190V280 9999 FEW018 BKN040 19/11 Q1012 NOSIG
  • 191530Z 23010KT 200V280 9999 FEW018 BKN040 19/10 Q1012 NOSIG
  • 191500Z 26015G27KT 9999 FEW018 BKN030 18/11 Q1012 NOSIG
  • 191430Z 24011G22KT 190V270 9999 -SHRA FEW018 BKN040 18/11 Q1012 NOSIG

TAF AMD TAF EIDW
Valid from the 19 at 13:00 until the 20 at 12:00 UTC


191358Z 1913/2012 25013KT 9999 FEW018 SCT040
PROB40
TEMPO 1914/1919 25015G25KT 5000 SHRA
PROB40
TEMPO 2002/2008 24016G27KT -RA BKN012
BECMG 2007/2009 24018KT
PROB40
TEMPO 2008/2012 25021G32KT



MET'MAP, your aeronautical weather chart ! - Copyright ORBIFLY December 2007 - Disclaimer

ORBIFLY MET'MAP TEAM :

Programming & Development : Alexandra Zaïnal
Original concept : Baudouin d'Aumeries
Technical & hardware support : Manuel Goepfert
Assistance : Marc-Olivier Méhu




SOURCES & CREDITS :

   NOAA